Time;durP1;ratioP1;P1;durP2;ratioP2;P2;SDS_P1;SDS_P2;PMS_P1;PMS_P2;Temp;Humidity;BMP_temperature;BMP_pressure;BME280_temperature;BME280_humidity;BME280_pressure;Samples;Min_cycle;Max_cycle;Signal;HPM_P1;HPM_P2
2022/10/20 05:26:20;;;;;;;;;29.50;21.50;;;;;;;;5129558;27;13519;-70
2022/10/20 05:28:46;;;;;;;;;25.50;21.00;;;;;;;;5081756;28;13558;-70
2022/10/20 05:31:12;;;;;;;;;26.40;22.20;;;;;;;;5078510;28;13585;-71
2022/10/20 05:33:37;;;;;;;;;;;;;;;;;;5088036;28;8911;-72
2022/10/20 05:36:02;;;;;;;;;;;;;;;;;;5085895;28;7520;-71
2022/10/20 05:38:27;;;;;;;;;;;;;;;;;;5087250;28;7528;-71
2022/10/20 05:40:52;;;;;;;;;;;;;;;;;;5088120;28;7521;-74
2022/10/20 05:43:17;;;;;;;;;;;;;;;;;;5092421;28;7548;-73
2022/10/20 05:45:43;;;;;;;;;;;;;;;;;;5087297;28;7537;-72
2022/10/20 05:48:08;;;;;;;;;;;;;;;;;;5086442;28;7985;-72
2022/10/20 05:50:33;;;;;;;;;;;;;;;;;;5087084;28;7544;-70
2022/10/20 05:52:58;;;;;;;;;;;;;;;;;;5087602;28;7524;-74
2022/10/20 05:55:23;;;;;;;;;;;;;;;;;;5088791;28;7547;-70
2022/10/20 05:57:48;;;;;;;;;;;;;;;;;;5086968;28;7524;-71
2022/10/20 06:00:15;;;;;;;;;;;;;;;;;;5086644;28;7542;-72
2022/10/20 06:02:40;;;;;;;;;;;;;;;;;;5086405;28;7520;-74
2022/10/20 06:05:05;;;;;;;;;;;;;;;;;;5086452;28;7563;-74
2022/10/20 06:07:30;;;;;;;;;;;;;;;;;;5086077;28;7551;-73
2022/10/20 06:09:55;;;;;;;;;;;;;;;;;;5086308;28;7654;-72
2022/10/20 06:12:20;;;;;;;;;;;;;;;;;;5086650;28;7529;-73
2022/10/20 06:14:45;;;;;;;;;;;;;;;;;;5086565;28;8079;-73
2022/10/20 06:17:10;;;;;;;;;;;;;;;;;;5086409;28;8002;-72
2022/10/20 06:19:36;;;;;;;;;;;;;;;;;;5086129;28;7548;-73
2022/10/20 06:22:01;;;;;;;;;;;;;;;;;;5084944;28;7528;-72
2022/10/20 06:24:26;;;;;;;;;;;;;;;;;;5086048;28;7540;-72
2022/10/20 06:26:51;;;;;;;;;;;;;;;;;;5086591;28;7552;-73
2022/10/20 06:29:16;;;;;;;;;;;;;;;;;;5086307;28;7548;-72
2022/10/20 06:31:41;;;;;;;;;;;;;;;;;;5083746;28;7540;-70
2022/10/20 06:34:07;;;;;;;;;;;;;;;;;;5084653;28;7541;-71
2022/10/20 06:36:32;;;;;;;;;;;;;;;;;;5079150;28;7536;-70
2022/10/20 06:38:57;;;;;;;;;;;;;;;;;;5073555;28;7528;-72
2022/10/20 06:41:22;;;;;;;;;;;;;;;;;;5073765;28;7520;-71
2022/10/20 06:43:47;;;;;;;;;;;;;;;;;;5074216;28;7520;-73
2022/10/20 06:46:12;;;;;;;;;;;;;;;;;;5074638;28;7563;-72
2022/10/20 06:48:37;;;;;;;;;;;;;;;;;;5076662;28;7570;-70
2022/10/20 06:51:03;;;;;;;;;;;;;;;;;;5074308;28;7570;-69
2022/10/20 06:53:28;;;;;;;;;;;;;;;;;;5074297;28;7999;-68
2022/10/20 06:55:53;;;;;;;;;;;;;;;;;;5072624;28;7525;-70
2022/10/20 06:58:18;;;;;;;;;;;;;;;;;;5073060;28;7532;-69
2022/10/20 07:00:43;;;;;;;;;;;;;;;;;;5071844;28;7550;-70
2022/10/20 07:03:08;;;;;;;;;;;;;;;;;;5072094;28;7540;-70
2022/10/20 07:05:34;;;;;;;;;;;;;;;;;;5071886;28;7536;-68
2022/10/20 07:08:00;;;;;;;;;;;;;;;;;;5070638;28;7536;-72
2022/10/20 07:10:25;;;;;;;;;;;;;;;;;;5070602;28;7543;-71
2022/10/20 07:12:50;;;;;;;;;;;;;;;;;;5071976;28;7535;-72
2022/10/20 07:15:15;;;;;;;;;;;;;;;;;;5071943;28;7586;-74
2022/10/20 07:17:40;;;;;;;;;;;;;;;;;;5070563;28;7567;-73
2022/10/20 07:20:06;;;;;;;;;;;;;;;;;;5070499;28;7520;-71
2022/10/20 07:22:32;;;;;;;;;;;;;;;;;;5070620;28;7582;-74
2022/10/20 07:24:58;;;;;;;;;;;;;;;;;;5071652;28;7552;-73
2022/10/20 07:27:23;;;;;;;;;;;;;;;;;;5071853;28;7524;-71
2022/10/20 07:29:48;;;;;;;;;;;;;;;;;;5071544;28;7543;-72
2022/10/20 07:32:13;;;;;;;;;;;;;;;;;;5071458;28;7552;-68
2022/10/20 07:34:39;;;;;;;;;;;;;;;;;;5071039;28;7536;-67
2022/10/20 07:37:04;;;;;;;;;;;;;;;;;;5071005;28;7540;-69
2022/10/20 07:39:29;;;;;;;;;;;;;;;;;;5071098;28;7527;-68
2022/10/20 07:41:54;;;;;;;;;;;;;;;;;;5071137;28;7528;-68
2022/10/20 07:44:19;;;;;;;;;;;;;;;;;;5070851;28;7611;-68
2022/10/20 07:46:44;;;;;;;;;;;;;;;;;;5069355;28;7542;-68
2022/10/20 07:49:09;;;;;;;;;;;;;;;;;;5068445;28;7536;-81
2022/10/20 07:51:35;;;;;;;;;;;;;;;;;;5072004;28;7521;-74
2022/10/20 07:54:00;;;;;;;;;;;;;;;;;;5072442;28;7550;-71
2022/10/20 07:56:25;;;;;;;;;;;;;;;;;;5072557;28;7532;-74
2022/10/20 07:58:50;;;;;;;;;;;;;;;;;;5072537;28;7544;-71
2022/10/20 08:01:15;;;;;;;;;;;;;;;;;;5072264;28;7520;-75
2022/10/20 08:03:40;;;;;;;;;;;;;;;;;;5073945;28;7536;-71
2022/10/20 08:06:06;;;;;;;;;;;;;;;;;;5072352;28;7613;-73
2022/10/20 08:08:31;;;;;;;;;;;;;;;;;;5071447;28;7536;-68
2022/10/20 08:10:57;;;;;;;;;;;;;;;;;;5071609;28;7536;-74
2022/10/20 08:13:22;;;;;;;;;;;;;;;;;;5071677;28;7528;-75
2022/10/20 08:15:47;;;;;;;;;;;;;;;;;;5071648;28;7532;-74
2022/10/20 08:18:13;;;;;;;;;;;;;;;;;;5071252;28;7963;-74
2022/10/20 08:20:38;;;;;;;;;;;;;;;;;;5071363;28;7528;-74
2022/10/20 08:23:03;;;;;;;;;;;;;;;;;;5071245;28;7532;-74
2022/10/20 08:25:28;;;;;;;;;;;;;;;;;;5070922;28;7937;-74
2022/10/20 08:27:53;;;;;;;;;;;;;;;;;;5071143;28;7529;-73
2022/10/20 08:30:18;;;;;;;;;;;;;;;;;;5070993;28;7524;-74
2022/10/20 08:32:43;;;;;;;;;;;;;;;;;;5069252;28;7520;-73
2022/10/20 08:35:08;;;;;;;;;;;;;;;;;;5070964;28;7533;-73
2022/10/20 08:37:35;;;;;;;;;;;;;;;;;;5068281;28;7517;-73
2022/10/20 08:40:00;;;;;;;;;;;;;;;;;;5071082;28;7521;-73
2022/10/20 08:42:25;;;;;;;;;;;;;;;;;;5071047;28;7520;-73
2022/10/20 08:47:48;;;;;;;;;;;;;;;;;;5069899;28;7505;-72
2022/10/20 08:50:15;;;;;;;;;;;;;;;;;;5071089;28;7543;-73
2022/10/20 08:52:40;;;;;;;;;;;;;;;;;;5070539;28;7541;-73
2022/10/20 08:55:05;;;;;;;;;;;;;;;;;;5070663;28;7539;-73
2022/10/20 08:57:30;;;;;;;;;;;;;;;;;;5070741;28;7548;-73
2022/10/20 09:00:03;;;;;;;;;;;;;;;;;;5070684;28;7520;-74
2022/10/20 09:02:28;;;;;;;;;;;;;;;;;;5068535;28;7521;-74
2022/10/20 09:04:53;;;;;;;;;;;;;;;;;;5070924;28;7524;-74
2022/10/20 09:07:18;;;;;;;;;;;;;;;;;;5071416;28;7976;-73
2022/10/20 09:09:43;;;;;;;;;;;;;;;;;;5069853;28;7512;-72
2022/10/20 09:12:09;;;;;;;;;;;;;;;;;;5075009;28;7533;-72
2022/10/20 09:14:34;;;;;;;;;;;;;;;;;;5072463;28;7548;-74
2022/10/20 09:16:59;;;;;;;;;;;;;;;;;;5069167;28;7532;-74
2022/10/20 09:19:24;;;;;;;;;;;;;;;;;;5069400;28;7532;-73
2022/10/20 09:21:49;;;;;;;;;;;;;;;;;;5068528;28;7532;-73
2022/10/20 09:24:14;;;;;;;;;;;;;;;;;;5071888;28;7536;-73
2022/10/20 09:26:39;;;;;;;;;;;;;;;;;;5071208;28;7589;-73
2022/10/20 09:29:05;;;;;;;;;;;;;;;;;;5071351;28;7540;-73
2022/10/20 09:31:30;;;;;;;;;;;;;;;;;;5071057;28;7639;-72
2022/10/20 09:33:56;;;;;;;;;;;;;;;;;;5070759;28;7983;-72
2022/10/20 09:36:21;;;;;;;;;;;;;;;;;;5071062;28;7548;-72
2022/10/20 09:38:46;;;;;;;;;;;;;;;;;;5071003;28;7516;-72
2022/10/20 09:41:11;;;;;;;;;;;;;;;;;;5070635;28;7537;-73
2022/10/20 09:43:36;;;;;;;;;;;;;;;;;;5071053;28;7976;-73
2022/10/20 09:46:01;;;;;;;;;;;;;;;;;;5069858;28;7544;-73
2022/10/20 09:48:26;;;;;;;;;;;;;;;;;;5070911;28;7521;-73
2022/10/20 09:50:53;;;;;;;;;;;;;;;;;;5071006;28;7525;-73
2022/10/20 09:53:19;;;;;;;;;;;;;;;;;;5070970;28;7519;-73
2022/10/20 09:55:44;;;;;;;;;;;;;;;;;;5071363;28;7537;-71
2022/10/20 09:58:09;;;;;;;;;;;;;;;;;;5070875;28;7525;-73
2022/10/20 10:00:34;;;;;;;;;;;;;;;;;;5070953;28;7972;-73
2022/10/20 10:02:59;;;;;;;;;;;;;;;;;;5071118;28;7528;-72
2022/10/20 10:05:24;;;;;;;;;;;;;;;;;;5070975;28;7524;-72
2022/10/20 10:07:49;;;;;;;;;;;;;;;;;;5071098;28;7521;-72
2022/10/20 10:10:14;;;;;;;;;;;;;;;;;;5071069;28;7528;-72
2022/10/20 10:12:40;;;;;;;;;;;;;;;;;;5073845;28;7523;-72
2022/10/20 10:15:05;;;;;;;;;;;;;;;;;;5073999;28;7580;-72
2022/10/20 10:17:30;;;;;;;;;;;;;;;;;;5074421;28;7523;-72
2022/10/20 10:19:55;;;;;;;;;;;;;;;;;;5074267;28;7543;-73
2022/10/20 10:22:20;;;;;;;;;;;;;;;;;;5075255;28;7571;-73
2022/10/20 10:24:46;;;;;;;;;;;;;;;;;;5075294;28;7524;-73
2022/10/20 10:27:11;;;;;;;;;;;;;;;;;;5074770;28;7521;-73
2022/10/20 10:29:36;;;;;;;;;;;;;;;;;;5073246;28;7516;-74
2022/10/20 10:32:01;;;;;;;;;;;;;;;;;;5073776;28;7554;-78
2022/10/20 10:34:30;;;;;;;;;;;;;;;;;;5072524;28;7524;-76
2022/10/20 10:36:55;;;;;;;;;;;;;;;;;;5074442;28;7524;-75
2022/10/20 10:39:21;;;;;;;;;;;;;;;;;;5074372;28;7549;-75
2022/10/20 10:41:46;;;;;;;;;;;;;;;;;;5074484;28;7595;-76
2022/10/20 10:44:11;;;;;;;;;;;;;;;;;;5073282;28;7604;-77
2022/10/20 10:46:36;;;;;;;;;;;;;;;;;;5074364;28;7603;-78
2022/10/20 10:49:01;;;;;;;;;;;;;;;;;;5073847;28;7524;-73
2022/10/20 10:51:26;;;;;;;;;;;;;;;;;;5068301;28;7525;-72
2022/10/20 10:53:51;;;;;;;;;;;;;;;;;;5074056;28;7585;-69
2022/10/20 10:56:17;;;;;;;;;;;;;;;;;;5072498;28;7643;-69
2022/10/20 10:58:42;;;;;;;;;;;;;;;;;;5072115;28;7532;-70
2022/10/20 11:01:07;;;;;;;;;;;;;;;;;;5076887;28;7563;-69
2022/10/20 11:03:32;;;;;;;;;;;;;;;;;;5089139;28;7537;-69
2022/10/20 11:05:57;;;;;;;;;;;;;;;;;;5072749;28;7600;-68
2022/10/20 11:08:22;;;;;;;;;;;;;;;;;;5070139;28;7535;-69
2022/10/20 11:10:47;;;;;;;;;;;;;;;;;;5071794;28;7546;-69
2022/10/20 11:13:13;;;;;;;;;;;;;;;;;;5072219;28;7615;-69
2022/10/20 11:15:38;;;;;;;;;;;;;;;;;;5072753;28;7540;-75
2022/10/20 11:18:03;;;;;;;;;;;;;;;;;;5073640;28;7520;-74
2022/10/20 11:20:28;;;;;;;;;;;;;;;;;;5072966;28;7528;-73
2022/10/20 11:22:53;;;;;;;;;;;;;;;;;;5073212;28;7629;-73
2022/10/20 11:25:18;;;;;;;;;;;;;;;;;;5071421;28;8098;-73
2022/10/20 11:27:43;;;;;;;;;;;;;;;;;;5073353;28;7532;-74
2022/10/20 11:30:13;;;;;;;;;;;;;;;;;;5073366;28;7596;-73
2022/10/20 11:32:39;;;;;;;;;;;;;;;;;;5089304;28;7517;-74
2022/10/20 11:35:04;;;;;;;;;;;;;;;;;;5093103;28;7521;-74
2022/10/20 11:37:29;;;;;;;;;;;;;;;;;;5093303;28;7525;-74
2022/10/20 11:39:54;;;;;;;;;;;;;;;;;;5093146;28;7975;-74
2022/10/20 11:42:19;;;;;;;;;;;;;;;;;;5093286;28;7524;-74
2022/10/20 11:44:44;;;;;;;;;;;;;;;;;;5098503;28;7516;-74
2022/10/20 11:47:09;;;;;;;;;;;;;;;;;;5096818;28;7577;-73
2022/10/20 11:49:35;;;;;;;;;;;;;;;;;;5093112;28;7520;-73
2022/10/20 11:52:00;;;;;;;;;;;;;;;;;;5125617;27;7521;-74
2022/10/20 11:54:25;;;;;;;;;;;;;;;;;;5093458;28;7544;-74
2022/10/20 11:56:50;;;;;;;;;;;;;;;;;;5092804;28;7520;-72
2022/10/20 11:59:15;;;;;;;;;;;;;;;;;;5092472;28;7512;-72
2022/10/20 12:01:40;;;;;;;;;;;;;;;;;;5125350;27;7560;-73
2022/10/20 12:04:06;;;;;;;;;;;;;;;;;;5125461;27;7524;-74
2022/10/20 12:06:31;;;;;;;;;;;;;;;;;;5092662;28;7528;-74
2022/10/20 12:08:56;;;;;;;;;;;;;;;;;;5092533;28;7581;-73
2022/10/20 12:11:21;;;;;;;;;;;;;;;;;;5092725;28;7516;-73
2022/10/20 12:13:46;;;;;;;;;;;;;;;;;;5092692;28;7528;-73
2022/10/20 12:16:11;;;;;;;;;;;;;;;;;;5124841;27;7554;-73
2022/10/20 12:18:36;;;;;;;;;;;;;;;;;;5125157;27;7565;-73
2022/10/20 12:21:02;;;;;;;;;;;;;;;;;;5092418;28;7540;-73
2022/10/20 12:23:27;;;;;;;;;;;;;;;;;;5092326;28;7516;-73
2022/10/20 12:25:52;;;;;;;;;;;;;;;;;;5092386;28;7602;-73
2022/10/20 12:28:17;;;;;;;;;;;;;;;;;;5092231;28;7638;-72
2022/10/20 12:30:42;;;;;;;;;;;;;;;;;;5091969;28;7520;-72
2022/10/20 12:33:08;;;;;;;;;;;;;;;;;;5091755;28;7532;-72
2022/10/20 12:35:33;;;;;;;;;;;;;;;;;;5091617;28;7547;-74
2022/10/20 12:38:00;;;;;;;;;;;;;;;;;;5092343;28;7524;-73
2022/10/20 12:40:25;;;;;;;;;;;;;;;;;;5092286;28;7569;-73
2022/10/20 12:42:50;;;;;;;;;;;;;;;;;;5092135;28;7607;-72
2022/10/20 12:45:15;;;;;;;;;;;;;;;;;;5093235;28;7524;-73
2022/10/20 12:47:40;;;;;;;;;;;;;;;;;;5093623;28;7531;-73
2022/10/20 12:50:06;;;;;;;;;;;;;;;;;;5092124;28;7538;-73
2022/10/20 12:52:32;;;;;;;;;;;;;;;;;;5091577;28;7529;-74
2022/10/20 12:54:57;;;;;;;;;;;;;;;;;;5092454;28;7532;-73
2022/10/20 12:57:22;;;;;;;;;;;;;;;;;;5092183;28;7528;-74
2022/10/20 12:59:47;;;;;;;;;;;;;;;;;;5092411;28;7524;-74
2022/10/20 13:02:15;;;;;;;;;;;;;;;;;;5092267;28;7524;-73
2022/10/20 13:04:40;;;;;;;;;;;;;;;;;;5092092;28;7589;-74
2022/10/20 13:07:05;;;;;;;;;;;;;;;;;;5092035;28;7539;-72
2022/10/20 13:09:30;;;;;;;;;;;;;;;;;;5091298;28;7531;-72
2022/10/20 13:11:55;;;;;;;;;;;;;;;;;;5124069;27;7520;-74
2022/10/20 13:14:20;;;;;;;;;;;;;;;;;;5091286;28;7543;-73
2022/10/20 13:16:46;;;;;;;;;;;;;;;;;;5091296;28;7532;-74
2022/10/20 13:19:11;;;;;;;;;;;;;;;;;;5123980;27;7525;-73
2022/10/20 13:21:36;;;;;;;;;;;;;;;;;;5091410;28;7543;-74
2022/10/20 13:24:01;;;;;;;;;;;;;;;;;;5091192;28;7548;-73
2022/10/20 13:26:26;;;;;;;;;;;;;;;;;;5091329;28;7525;-74
2022/10/20 13:28:51;;;;;;;;;;;;;;;;;;5124247;27;7524;-74
2022/10/20 13:31:17;;;;;;;;;;;;;;;;;;5091624;28;7547;-74
2022/10/20 13:33:42;;;;;;;;;;;;;;;;;;5090797;28;7516;-73
2022/10/20 13:36:07;;;;;;;;;;;;;;;;;;5091263;28;7540;-73
2022/10/20 13:38:32;;;;;;;;;;;;;;;;;;5091318;28;7524;-74
2022/10/20 13:40:58;;;;;;;;;;;;;;;;;;5091237;28;7532;-73
2022/10/20 13:43:23;;;;;;;;;;;;;;;;;;5090675;28;7513;-73
2022/10/20 13:45:48;;;;;;;;;;;;;;;;;;5091229;28;7574;-73
2022/10/20 13:48:13;;;;;;;;;;;;;;;;;;5095165;28;7513;-73
2022/10/20 13:50:39;;;;;;;;;;;;;;;;;;5095158;28;7585;-74
2022/10/20 13:53:04;;;;;;;;;;;;;;;;;;5095134;28;7527;-74
2022/10/20 13:55:29;;;;;;;;;;;;;;;;;;5097017;22;7917;-71
2022/10/20 13:57:54;;;;;;;;;;;;;;;;;;5073600;28;7539;-71
2022/10/20 14:00:19;;;;;;;;;;;;;;;;;;5074452;28;7539;-70
2022/10/20 14:02:44;;;;;;;;;;;;;;;;;;5072770;28;7527;-70
2022/10/20 14:05:09;;;;;;;;;;;;;;;;;;5074251;28;7528;-70
2022/10/20 14:07:35;;;;;;;;;;;;;;;;;;5074363;28;7528;-70
2022/10/20 14:10:00;;;;;;;;;;;;;;;;;;5074566;28;7521;-70
2022/10/20 14:12:26;;;;;;;;;;;;;;;;;;5074323;28;7540;-71
2022/10/20 14:14:51;;;;;;;;;;;;;;;;;;5074370;28;7960;-71
2022/10/20 14:17:16;;;;;;;;;;;;;;;;;;5074095;28;7615;-71
2022/10/20 14:19:41;;;;;;;;;;;;;;;;;;5073845;28;7593;-71
2022/10/20 14:22:06;;;;;;;;;;;;;;;;;;5074209;28;7941;-71
2022/10/20 14:24:31;;;;;;;;;;;;;;;;;;5074121;28;7603;-71
2022/10/20 14:26:57;;;;;;;;;;;;;;;;;;5074540;28;7925;-71
2022/10/20 14:29:22;;;;;;;;;;;;;;;;;;5074096;28;7524;-76
2022/10/20 14:31:47;;;;;;;;;;;;;;;;;;5073984;28;7525;-73
2022/10/20 14:34:53;;;;;;;;;10.80;10.20;;;;;;;;5135903;27;13413;-73
2022/10/20 14:37:26;;;;;;;;;9.00;8.20;;;;;;;;5101385;28;13517;-72
2022/10/20 14:39:51;;;;;;;;;11.60;9.20;;;;;;;;5102746;28;13435;-74
2022/10/20 14:42:24;;;;;;;;;14.00;12.00;;;;;;;;5101820;28;14288;-77
2022/10/20 14:44:50;;;;;;;;;9.75;9.75;;;;;;;;5103133;28;13463;-77
2022/10/20 14:47:16;;;;;;;;;8.75;8.75;;;;;;;;5102700;28;13473;-76
2022/10/20 14:49:42;;;;;;;;;10.00;10.00;;;;;;;;5103668;27;13419;-75
2022/10/20 14:52:16;;;;;;;;;11.00;11.00;;;;;;;;5118355;27;13483;-79
2022/10/20 14:54:42;;;;;;;;;10.00;10.00;;;;;;;;5123629;27;13557;-72
2022/10/20 14:57:08;;;;;;;;;15.75;13.75;;;;;;;;5121465;27;13412;-73
2022/10/20 14:59:49;;;;;;;;;13.00;13.00;;;;;;;;5121582;27;13620;-72
2022/10/20 15:02:18;;;;;;;;;13.75;11.75;;;;;;;;5122986;27;13579;-73
2022/10/20 15:04:45;;;;;;;;;13.00;12.80;;;;;;;;5122863;27;13467;-73
2022/10/20 15:07:29;;;;;;;;;13.25;12.00;;;;;;;;5123961;27;13572;-73
2022/10/20 15:09:58;;;;;;;;;11.00;11.00;;;;;;;;5124443;27;13418;-72
2022/10/20 15:12:44;;;;;;;;;15.75;14.75;;;;;;;;5121253;27;14284;-74
2022/10/20 15:15:09;;;;;;;;;14.00;14.00;;;;;;;;5121903;27;13580;-73
2022/10/20 15:17:45;;;;;;;;;18.25;16.25;;;;;;;;5122847;27;13865;-73
2022/10/20 15:20:29;;;;;;;;;16.75;15.25;;;;;;;;5122633;27;13489;-73
2022/10/20 15:23:04;;;;;;;;;16.00;13.00;;;;;;;;5122489;27;13740;-73
2022/10/20 15:25:31;;;;;;;;;19.80;14.20;;;;;;;;5122696;27;13468;-72
2022/10/20 15:27:57;;;;;;;;;15.80;15.00;;;;;;;;5120968;27;13512;-72
2022/10/20 15:30:23;;;;;;;;;15.25;14.75;;;;;;;;5122387;27;13466;-73
2022/10/20 15:32:49;;;;;;;;;17.00;15.00;;;;;;;;5121909;27;13517;-73
2022/10/20 15:35:17;;;;;;;;;18.60;12.80;;;;;;;;5122186;27;13477;-73
2022/10/20 15:37:43;;;;;;;;;15.80;15.20;;;;;;;;5122371;27;13472;-73
2022/10/20 15:40:08;;;;;;;;;17.00;16.00;;;;;;;;5122411;27;13559;-73
2022/10/20 15:42:34;;;;;;;;;14.75;13.25;;;;;;;;5122288;27;14169;-73
2022/10/20 15:44:59;;;;;;;;;20.75;18.50;;;;;;;;5115276;27;13882;-72
2022/10/20 15:47:24;;;;;;;;;16.00;15.50;;;;;;;;5108551;28;13517;-73
2022/10/20 15:49:50;;;;;;;;;20.25;16.50;;;;;;;;5107993;28;13517;-73
2022/10/20 15:52:16;;;;;;;;;18.00;16.33;;;;;;;;5106966;28;13491;-73
2022/10/20 15:54:42;;;;;;;;;16.75;16.25;;;;;;;;5115474;22;13558;-86
2022/10/20 15:57:07;;;;;;;;;17.50;16.00;;;;;;;;5069478;28;13439;-86
2022/10/20 15:59:32;;;;;;;;;18.67;16.00;;;;;;;;5069494;28;13659;-86
2022/10/20 16:01:58;;;;;;;;;22.25;21.75;;;;;;;;5069094;28;13602;-86
2022/10/20 16:04:27;;;;;;;;;26.67;23.00;;;;;;;;5068842;28;13646;-85
2022/10/20 16:06:53;;;;;;;;;20.60;20.00;;;;;;;;5069128;28;13522;-86
2022/10/20 16:09:19;;;;;;;;;17.80;15.80;;;;;;;;5068990;28;14396;-84
2022/10/20 16:11:44;;;;;;;;;18.67;17.00;;;;;;;;5067302;28;13590;-86
2022/10/20 16:14:10;;;;;;;;;22.75;20.00;;;;;;;;5068807;28;14443;-85
2022/10/20 16:16:35;;;;;;;;;18.25;15.50;;;;;;;;5069076;28;13527;-87
2022/10/20 16:19:01;;;;;;;;;19.00;18.25;;;;;;;;5068855;28;14285;-85
2022/10/20 16:21:26;;;;;;;;;19.25;19.00;;;;;;;;5067526;28;13637;-85
2022/10/20 16:23:51;;;;;;;;;16.50;15.50;;;;;;;;5068856;28;14320;-85
2022/10/20 16:26:17;;;;;;;;;15.75;15.25;;;;;;;;5068620;28;13509;-85
2022/10/20 16:28:42;;;;;;;;;17.75;15.00;;;;;;;;5068663;28;13724;-85
2022/10/20 16:31:08;;;;;;;;;21.00;17.50;;;;;;;;5068512;28;14406;-86
2022/10/20 16:33:34;;;;;;;;;21.00;20.00;;;;;;;;5068464;28;13582;-86
2022/10/20 16:36:04;;;;;;;;;22.00;18.00;;;;;;;;5068719;28;14245;-85
2022/10/20 16:38:29;;;;;;;;;18.75;18.00;;;;;;;;5068768;28;13422;-85
2022/10/20 16:40:55;;;;;;;;;16.50;16.00;;;;;;;;5068703;28;13538;-84
2022/10/20 16:43:20;;;;;;;;;17.25;13.75;;;;;;;;5068318;28;14385;-83
2022/10/20 16:45:46;;;;;;;;;18.50;18.50;;;;;;;;5066789;28;14261;-78
2022/10/20 16:48:11;;;;;;;;;17.00;17.00;;;;;;;;5066507;28;13601;-73
2022/10/20 16:50:39;;;;;;;;;15.25;15.25;;;;;;;;5049351;28;13519;-81
2022/10/20 16:53:04;;;;;;;;;30.50;27.00;;;;;;;;5068119;28;13545;-80
2022/10/20 16:55:30;;;;;;;;;51.00;38.00;;;;;;;;5068261;28;13445;-77
2022/10/20 16:57:55;;;;;;;;;29.33;28.00;;;;;;;;5048427;28;13523;-76
2022/10/20 17:00:20;;;;;;;;;19.50;19.50;;;;;;;;5068024;28;13498;-76
2022/10/20 17:02:47;;;;;;;;;51.00;41.50;;;;;;;;5067110;28;13551;-77
2022/10/20 17:05:13;;;;;;;;;31.40;27.00;;;;;;;;5067754;28;13535;-77
2022/10/20 17:07:38;;;;;;;;;27.00;24.50;;;;;;;;5064902;28;13493;-78
2022/10/20 17:10:04;;;;;;;;;17.00;17.00;;;;;;;;5067833;28;14302;-79
2022/10/20 17:12:29;;;;;;;;;21.00;19.80;;;;;;;;5067599;28;14287;-77
2022/10/20 17:14:54;;;;;;;;;15.67;15.00;;;;;;;;5067759;28;14334;-85
2022/10/20 17:17:19;;;;;;;;;17.33;14.33;;;;;;;;5048646;28;13564;-77
2022/10/20 17:19:45;;;;;;;;;17.67;14.00;;;;;;;;5067470;28;13450;-75
2022/10/20 17:22:10;;;;;;;;;14.50;13.00;;;;;;;;5064140;28;13478;-76
2022/10/20 17:24:35;;;;;;;;;19.00;16.00;;;;;;;;5066872;28;13393;-75
2022/10/20 17:27:00;;;;;;;;;18.00;15.25;;;;;;;;5064852;28;14231;-76
2022/10/20 17:29:26;;;;;;;;;18.75;15.75;;;;;;;;5067360;28;13575;-77
2022/10/20 17:31:51;;;;;;;;;15.00;14.00;;;;;;;;5066605;28;13442;-82
2022/10/20 17:34:17;;;;;;;;;14.33;14.33;;;;;;;;5065565;28;13579;-76
2022/10/20 17:36:42;;;;;;;;;22.50;18.50;;;;;;;;5061215;28;13405;-76
2022/10/20 17:39:07;;;;;;;;;20.00;15.67;;;;;;;;5064816;28;13699;-75
2022/10/20 17:41:33;;;;;;;;;15.67;15.67;;;;;;;;5064769;28;13612;-77
2022/10/20 17:43:59;;;;;;;;;19.50;15.50;;;;;;;;5065661;28;13549;-76
2022/10/20 17:46:24;;;;;;;;;17.20;13.40;;;;;;;;5063591;28;13496;-79
2022/10/20 17:48:50;;;;;;;;;15.75;13.50;;;;;;;;5060436;28;14622;-77
2022/10/20 17:51:18;;;;;;;;;15.75;14.75;;;;;;;;5065372;28;13446;-75
2022/10/20 17:53:44;;;;;;;;;26.67;21.00;;;;;;;;5065251;28;14432;-76
2022/10/20 17:56:14;;;;;;;;;20.00;20.00;;;;;;;;5045416;28;13625;-76
2022/10/20 17:58:41;;;;;;;;;17.40;16.60;;;;;;;;5065477;28;13445;-75
2022/10/20 18:01:10;;;;;;;;;17.40;16.80;;;;;;;;5065602;28;13480;-85
2022/10/20 18:03:36;;;;;;;;;17.00;14.00;;;;;;;;5064505;28;13497;-84
2022/10/20 18:06:07;;;;;;;;;17.67;16.67;;;;;;;;5064488;28;13532;-79
2022/10/20 18:08:32;;;;;;;;;16.60;16.00;;;;;;;;5065952;28;13478;-77
2022/10/20 18:10:57;;;;;;;;;17.50;17.50;;;;;;;;5066733;28;13605;-81
2022/10/20 18:13:23;;;;;;;;;20.00;16.25;;;;;;;;5066234;28;13506;-80
2022/10/20 18:15:48;;;;;;;;;18.00;14.00;;;;;;;;5066373;28;13519;-81
2022/10/20 18:18:14;;;;;;;;;20.50;18.25;;;;;;;;5064029;28;13477;-81
2022/10/20 18:20:39;;;;;;;;;15.00;13.75;;;;;;;;5065808;28;13579;-79
2022/10/20 18:23:04;;;;;;;;;16.50;16.50;;;;;;;;5066554;28;14343;-80
2022/10/20 18:25:29;;;;;;;;;17.00;15.50;;;;;;;;5066690;28;13483;-79
2022/10/20 18:27:55;;;;;;;;;21.00;18.00;;;;;;;;5064510;28;13525;-75
2022/10/20 18:30:20;;;;;;;;;21.50;21.00;;;;;;;;5066313;28;13535;-81
2022/10/20 18:32:45;;;;;;;;;23.00;21.75;;;;;;;;5066127;28;13598;-83
2022/10/20 18:35:11;;;;;;;;;21.75;19.00;;;;;;;;5066161;28;13600;-81
2022/10/20 18:37:36;;;;;;;;;20.00;19.25;;;;;;;;5051118;28;13652;-77
2022/10/20 18:40:02;;;;;;;;;26.25;21.50;;;;;;;;5064153;28;14244;-78
2022/10/20 18:42:27;;;;;;;;;19.00;19.00;;;;;;;;5064323;28;13477;-78
2022/10/20 18:44:52;;;;;;;;;24.00;20.50;;;;;;;;5064136;28;13535;-78
2022/10/20 18:47:18;;;;;;;;;22.00;19.50;;;;;;;;5061997;28;14342;-75
2022/10/20 18:49:43;;;;;;;;;35.00;30.50;;;;;;;;5045787;28;13602;-74
2022/10/20 18:52:08;;;;;;;;;32.33;31.00;;;;;;;;5064802;28;13611;-73
2022/10/20 18:54:33;;;;;;;;;27.00;23.00;;;;;;;;5066323;28;13618;-74
2022/10/20 18:56:59;;;;;;;;;28.50;28.50;;;;;;;;5064376;28;13492;-74
2022/10/20 18:59:25;;;;;;;;;24.25;21.00;;;;;;;;5065877;28;13514;-75
2022/10/20 19:01:50;;;;;;;;;48.25;37.25;;;;;;;;5065451;28;13495;-74
2022/10/20 19:04:16;;;;;;;;;58.33;47.33;;;;;;;;5074253;28;14262;-75
2022/10/20 19:06:42;;;;;;;;;30.50;26.50;;;;;;;;5072217;28;13531;-75
2022/10/20 19:09:09;;;;;;;;;34.50;30.00;;;;;;;;5073183;28;14272;-74
2022/10/20 19:11:35;;;;;;;;;27.75;23.25;;;;;;;;5074388;28;13482;-75
2022/10/20 19:14:01;;;;;;;;;46.60;38.00;;;;;;;;5075338;28;13508;-75
2022/10/20 19:16:28;;;;;;;;;72.75;56.50;;;;;;;;5073638;28;14337;-75
2022/10/20 19:18:54;;;;;;;;;73.80;58.40;;;;;;;;5074123;28;13546;-76
2022/10/20 19:21:20;;;;;;;;;77.33;64.00;;;;;;;;5058080;28;13513;-77
2022/10/20 19:23:47;;;;;;;;;34.75;30.25;;;;;;;;5059155;28;13545;-77
2022/10/20 19:26:26;;;;;;;;;21.60;21.60;;;;;;;;5078596;28;13549;-77
2022/10/20 19:28:59;;;;;;;;;18.33;17.33;;;;;;;;5076501;28;13436;-76
2022/10/20 19:31:24;;;;;;;;;;;;;;;;;;5083747;28;10357;-75
2022/10/20 19:33:49;;;;;;;;;;;;;;;;;;5083152;28;7554;-78
2022/10/20 19:36:15;;;;;;;;;;;;;;;;;;5085460;28;7539;-78
2022/10/20 19:38:40;;;;;;;;;;;;;;;;;;5082025;28;7524;-76
2022/10/20 19:41:05;;;;;;;;;;;;;;;;;;5074863;28;7517;-76
2022/10/20 19:43:30;;;;;;;;;;;;;;;;;;5079789;28;7536;-76
2022/10/20 19:45:55;;;;;;;;;;;;;;;;;;5084761;28;7529;-75
2022/10/20 19:48:20;;;;;;;;;;;;;;;;;;5082996;28;7524;-78
2022/10/20 19:50:45;;;;;;;;;;;;;;;;;;5081809;28;7513;-78
2022/10/20 19:53:10;;;;;;;;;;;;;;;;;;5084190;28;7556;-81
2022/10/20 19:55:36;;;;;;;;;;;;;;;;;;5082132;28;7536;-80
2022/10/20 19:58:01;;;;;;;;;;;;;;;;;;5083742;28;7593;-81
2022/10/20 20:00:26;;;;;;;;;;;;;;;;;;5065526;28;7565;-81
2022/10/20 20:02:51;;;;;;;;;;;;;;;;;;5081968;28;7539;-81
2022/10/20 20:05:16;;;;;;;;;;;;;;;;;;5078641;28;7516;-81
2022/10/20 20:07:41;;;;;;;;;;;;;;;;;;5064770;28;7535;-81
2022/10/20 20:10:06;;;;;;;;;;;;;;;;;;5082217;28;7533;-81
2022/10/20 20:12:31;;;;;;;;;;;;;;;;;;5081621;28;7633;-82
2022/10/20 20:14:57;;;;;;;;;;;;;;;;;;5084070;28;7528;-81
2022/10/20 20:17:22;;;;;;;;;;;;;;;;;;5082441;28;7594;-81
2022/10/20 20:19:47;;;;;;;;;;;;;;;;;;5081016;28;7581;-80
2022/10/20 20:22:12;;;;;;;;;;;;;;;;;;5083937;28;7535;-81
2022/10/20 20:24:38;;;;;;;;;;;;;;;;;;5074001;28;7546;-77
2022/10/20 20:27:03;;;;;;;;;;;;;;;;;;5074023;28;7619;-78
2022/10/20 20:29:28;;;;;;;;;;;;;;;;;;5074207;28;7532;-77
2022/10/20 20:31:53;;;;;;;;;;;;;;;;;;5057609;28;7578;-77
2022/10/20 20:34:18;;;;;;;;;;;;;;;;;;5073454;28;7619;-78
2022/10/20 20:36:43;;;;;;;;;;;;;;;;;;5073596;28;7516;-77
2022/10/20 20:39:08;;;;;;;;;;;;;;;;;;5083169;28;7521;-77
2022/10/20 20:41:33;;;;;;;;;;;;;;;;;;5073160;28;7521;-77
2022/10/20 20:43:59;;;;;;;;;;;;;;;;;;5060317;28;7524;-77
2022/10/20 20:46:25;;;;;;;;;;;;;;;;;;5056729;28;7516;-77
2022/10/20 20:48:50;;;;;;;;;;;;;;;;;;5055281;28;7525;-77
2022/10/20 20:51:15;;;;;;;;;;;;;;;;;;5079968;28;7521;-77
2022/10/20 20:53:41;;;;;;;;;;;;;;;;;;5073098;28;7540;-77
2022/10/20 20:56:06;;;;;;;;;;;;;;;;;;5053999;28;7533;-73
2022/10/20 20:58:31;;;;;;;;;;;;;;;;;;5069553;28;7516;-77
